Hiyodori — JD2366 — position and weather

sailwx.info

Track history (hours):
 
Tides and Currents Weather Stations Pressure Air Temp Water Temp Dewpoint Dewpoint Depression Visibility Wind Speed Wind Dir Waves Ship Positions

Hiyodori

Last reported at 2018-Jul-21 11:27 UTC. Time now 2018-Jul-22 02:51 UTC.
Position N 34°55' E 139°21'.

Length 88 m; draft 3.6 m.

Type: Cargo ship. MMSI: 431000132.

Date/timePositionNaut miles runAvg speedWind from/ knotsBaromVisibWave heightAir tempDewpointWater temp
2018-Jul-21 11:27N 34°55' E 139°21'4 9.3
2018-Jul-21 10:59N 34°58' E 139°26'5 9.2
2018-Jul-21 10:29N 35°00' E 139°30'5 9.4
2018-Jul-21 09:59N 35°03' E 139°35'510.0
2018-Jul-21 09:30N 35°06' E 139°40'510.7
2018-Jul-21 09:00N 35°10' E 139°44'510.6
2018-Jul-21 08:30N 35°15' E 139°46'611.7
2018-Jul-21 08:00N 35°20' E 139°42'611.7
2018-Jul-21 07:30N 35°26' E 139°43'4 8.0
2018-Jul-21 07:00N 35°28' E 139°39'0 0.4
2018-Jul-21 06:28N 35°29' E 139°39'0 0.0
2018-Jul-21 05:58N 35°29' E 139°39'0 0.0
2018-Jul-21 05:28N 35°29' E 139°39'0 0.0
2018-Jul-21 04:58N 35°29' E 139°39'0 0.0
2018-Jul-21 04:28N 35°29' E 139°39'0 0.0
2018-Jul-21 03:58N 35°29' E 139°39'0 0.0
2018-Jul-21 03:28N 35°29' E 139°39'0 0.0
2018-Jul-21 02:58N 35°29' E 139°39'0 0.0
2018-Jul-21 02:28N 35°29' E 139°39'0 0.0
2018-Jul-21 01:58N 35°29' E 139°39'0 0.0
2018-Jul-21 01:28N 35°29' E 139°39'0 0.0
2018-Jul-21 00:58N 35°29' E 139°39'0 0.0
2018-Jul-21 00:28N 35°29' E 139°39'0 0.0
2018-Jul-20 23:58N 35°29' E 139°39'0 0.0
2018-Jul-20 23:28N 35°29' E 139°39'0 0.0
2018-Jul-20 22:58N 35°29' E 139°39'0 0.0
2018-Jul-20 22:28N 35°29' E 139°39'0 0.0
2018-Jul-20 21:58N 35°29' E 139°39'0 0.0
2018-Jul-20 21:28N 35°29' E 139°39'0 0.0
2018-Jul-20 20:58N 35°29' E 139°39'0 0.0
2018-Jul-20 20:28N 35°29' E 139°39'0 0.0
2018-Jul-20 19:58N 35°29' E 139°39'0 0.0
2018-Jul-20 19:28N 35°29' E 139°39'0 0.0
2018-Jul-20 18:58N 35°29' E 139°39'0 0.0
2018-Jul-20 18:28N 35°29' E 139°39'0 0.0
2018-Jul-20 17:58N 35°29' E 139°39'0 0.0
2018-Jul-20 17:28N 35°29' E 139°39'0 0.0
2018-Jul-20 16:58N 35°29' E 139°39'0 0.0
2018-Jul-20 16:28N 35°29' E 139°39'0 0.0
2018-Jul-20 15:58N 35°29' E 139°39'0 0.0
2018-Jul-20 15:28N 35°29' E 139°39'0 0.0
2018-Jul-20 14:58N 35°29' E 139°39'0 0.0
2018-Jul-20 14:28N 35°29' E 139°39'0 0.0
2018-Jul-20 13:58N 35°29' E 139°39'0 0.0
2018-Jul-20 13:28N 35°29' E 139°39'0 0.0
2018-Jul-20 12:58N 35°29' E 139°39'0 0.0
2018-Jul-20 12:28N 35°29' E 139°39'0 0.0
2018-Jul-20 11:58N 35°29' E 139°39'0 0.0
2018-Jul-20 11:28N 35°29' E 139°39'0 0.0
2018-Jul-20 10:58N 35°29' E 139°39'0 0.0
2018-Jul-20 10:28N 35°29' E 139°39'0 0.0
2018-Jul-20 09:58N 35°29' E 139°39'0 0.0
2018-Jul-20 09:28N 35°29' E 139°39'0 0.0
2018-Jul-20 08:58N 35°29' E 139°39'0 0.0
2018-Jul-20 08:28N 35°29' E 139°39'0 0.0
2018-Jul-20 07:58N 35°29' E 139°39'0 0.0
2018-Jul-20 07:28N 35°29' E 139°39'2 3.5
2018-Jul-20 07:00N 35°27' E 139°40'3 5.2
2018-Jul-20 06:30N 35°26' E 139°43'2 4.6
2018-Jul-20 06:00N 35°28' E 139°45'2 3.1
2018-Jul-20 05:30N 35°29' E 139°45'1 1.3
2018-Jul-20 05:01N 35°29' E 139°45'5 9.1
2018-Jul-20 04:31N 35°24' E 139°45'0 0.1
2018-Jul-20 01:22N 35°24' E 139°45'0 0.0
2018-Jul-20 00:25N 35°24' E 139°45'1 1.8
2018-Jul-20 00:00N 35°23' E 139°45'611.3
2018-Jul-19 23:30N 35°18' E 139°45'612.0
2018-Jul-19 23:00N 35°12' E 139°47'612.8
2018-Jul-19 22:30N 35°06' E 139°44'612.8
2018-Jul-19 22:00N 35°01' E 139°39'814.1
2018-Jul-19 21:27N 34°56' E 139°31'28 1.0
2018-Jul-18 16:43N 34°41' E 139°02'2411.1
2018-Jul-18 14:34N 34°57' E 139°24'110.1
2018-Jul-18 14:29N 34°57' E 139°25'1210.6
2018-Jul-18 13:21N 35°04' E 139°36'411.8
2018-Jul-18 13:00N 35°07' E 139°41'611.5
2018-Jul-18 12:30N 35°11' E 139°45'510.9
2018-Jul-18 12:00N 35°17' E 139°45'611.7
2018-Jul-18 11:30N 35°22' E 139°42'4 4.3
2018-Jul-18 10:29N 35°26' E 139°41'0 0.0
2018-Jul-18 09:59N 35°26' E 139°41'0 0.0
2018-Jul-18 09:29N 35°26' E 139°41'0 0.0
2018-Jul-18 08:59N 35°26' E 139°41'0 0.0
2018-Jul-18 08:29N 35°26' E 139°41'0 0.0
2018-Jul-18 08:00N 35°26' E 139°41'1 2.8
2018-Jul-18 07:30N 35°26' E 139°43'4 7.3
2018-Jul-18 07:01N 35°29' E 139°45'0 0.1
2018-Jul-18 06:30N 35°29' E 139°45'0 0.0
2018-Jul-18 06:00N 35°29' E 139°45'0 0.0
2018-Jul-18 05:30N 35°29' E 139°45'0 1.0
2018-Jul-18 05:00N 35°29' E 139°45'3 5.8
2018-Jul-18 04:28N 35°28' E 139°42'0 0.0
2018-Jul-18 03:58N 35°28' E 139°42'0 0.0
2018-Jul-18 03:28N 35°28' E 139°42'0 0.0
2018-Jul-18 02:58N 35°28' E 139°42'1 1.1
2018-Jul-18 02:31N 35°28' E 139°42'4 8.5
2018-Jul-18 02:01N 35°24' E 139°40'1 1.3
2018-Jul-18 01:31N 35°24' E 139°41'0 0.0
2018-Jul-18 01:00N 35°24' E 139°41'3 6.0
2018-Jul-18 00:30N 35°21' E 139°42'611.6
2018-Jul-18 00:00N 35°16' E 139°46'611.1
2018-Jul-17 23:30N 35°11' E 139°47'612.0
2018-Jul-17 23:00N 35°05' E 139°46'612.3
2018-Jul-17 22:30N 35°02' E 139°39'713.4
2018-Jul-17 22:00N 34°57' E 139°33'234 6.0
2018-Jul-16 06:56N 33°52' E 135°01'512.5
2018-Jul-16 06:30N 33°58' E 135°01'612.6
2018-Jul-16 06:00N 34°04' E 135°00'612.1
2018-Jul-16 05:30N 34°10' E 134°60'713.6
2018-Jul-16 05:01N 34°17' E 134°59'612.6
2018-Jul-16 04:30N 34°23' E 135°02'613.0
2018-Jul-16 04:00N 34°27' E 135°07'612.5
2018-Jul-16 03:30N 34°31' E 135°13'612.3
2018-Jul-16 03:00N 34°37' E 135°16'3 6.2
2018-Jul-16 02:30N 34°40' E 135°14'0 0.1
2018-Jul-16 01:58N 34°40' E 135°14'0 0.0
2018-Jul-16 01:28N 34°40' E 135°14'0 0.0
2018-Jul-16 00:55N 34°40' E 135°14'0 0.1
2018-Jul-16 00:28N 34°40' E 135°14'0 0.1
2018-Jul-15 23:55N 34°40' E 135°14'0 0.0
2018-Jul-15 23:30N 34°40' E 135°14'3 5.4
2018-Jul-15 23:00N 34°38' E 135°16'4 7.7
2018-Jul-15 22:30N 34°35' E 135°15'4 7.4
2018-Jul-15 22:00N 34°31' E 135°13'3 7.0
2018-Jul-15 21:30N 34°29' E 135°10'4 7.3
2018-Jul-15 21:00N 34°26' E 135°07'3 6.9
2018-Jul-15 20:31N 34°23' E 135°04'4 7.9
2018-Jul-15 20:01N 34°20' E 135°02'5 9.7
2018-Jul-15 19:30N 34°16' E 134°59'5 9.6
2018-Jul-15 19:00N 34°11' E 134°59'611.0
2018-Jul-15 18:30N 34°05' E 134°59'611.1
2018-Jul-15 18:00N 33°60' E 134°59'611.3
2018-Jul-15 17:27N 33°53' E 134°59'511.3
2018-Jul-15 17:00N 33°49' E 135°01'1012.1
2018-Jul-15 16:12N 33°41' E 135°08'312.0
2018-Jul-15 15:59N 33°39' E 135°11'22111.1
2018-Jul-14 19:59N 34°56' E 139°22'510.6
2018-Jul-14 19:30N 34°59' E 139°27'911.7
2018-Jul-14 18:44N 35°04' E 139°36'313.5
2018-Jul-14 18:30N 35°06' E 139°39'612.7
2018-Jul-14 18:00N 35°10' E 139°45'611.8
2018-Jul-14 17:30N 35°16' E 139°46'612.1
2018-Jul-14 17:00N 35°21' E 139°42'510.8
2018-Jul-14 16:30N 35°27' E 139°41'1 1.2
2018-Jul-14 15:59N 35°26' E 139°41'0 0.0
2018-Jul-14 15:26N 35°26' E 139°41'0 0.0
2018-Jul-14 14:59N 35°26' E 139°41'0 0.0
2018-Jul-14 14:29N 35°26' E 139°41'0 0.0
2018-Jul-14 13:26N 35°26' E 139°41'0 0.0
2018-Jul-14 12:59N 35°26' E 139°41'0 0.1
2018-Jul-14 12:31N 35°26' E 139°41'4 7.4
2018-Jul-14 12:00N 35°24' E 139°45'0 0.1
2018-Jul-14 11:17N 35°24' E 139°45'0 0.0
2018-Jul-14 10:59N 35°24' E 139°45'0 0.0
2018-Jul-14 10:26N 35°24' E 139°45'0 0.1
2018-Jul-14 09:59N 35°24' E 139°45'0 0.2
2018-Jul-14 09:29N 35°24' E 139°45'0 0.0
2018-Jul-14 08:59N 35°24' E 139°45'0 0.0
2018-Jul-14 08:26N 35°24' E 139°45'0 0.0
2018-Jul-14 07:58N 35°24' E 139°45'4 7.9
2018-Jul-14 07:30N 35°24' E 139°40'0 0.7
2018-Jul-14 06:59N 35°24' E 139°41'0 0.0
2018-Jul-14 06:29N 35°24' E 139°41'0 0.2
2018-Jul-14 06:00N 35°24' E 139°41'1 2.1
2018-Jul-14 05:30N 35°23' E 139°41'2 4.0
2018-Jul-14 04:58N 35°23' E 139°44'0 0.0
2018-Jul-14 04:28N 35°23' E 139°44'0 0.0
2018-Jul-14 03:58N 35°23' E 139°44'0 0.0
2018-Jul-14 03:28N 35°23' E 139°44'0 0.1
2018-Jul-14 02:58N 35°23' E 139°44'0 0.0
2018-Jul-14 02:28N 35°23' E 139°44'3 6.5
2018-Jul-14 02:00N 35°20' E 139°43'611.2
2018-Jul-14 01:30N 35°15' E 139°47'510.8
2018-Jul-14 01:00N 35°10' E 139°46'611.8
2018-Jul-14 00:29N 35°04' E 139°44'613.0
2018-Jul-14 00:00N 35°00' E 139°38'714.2
2018-Jul-13 23:31N 34°56' E 139°31'8 0.2
2018-Jul-11 22:35N 34°53' E 139°22'2 9.3
2018-Jul-11 22:25N 34°54' E 139°23'610.2
2018-Jul-11 21:52N 34°58' E 139°28'411.0
2018-Jul-11 21:31N 35°00' E 139°32'611.3
2018-Jul-11 20:58N 35°04' E 139°38'511.7
2018-Jul-11 20:30N 35°08' E 139°43'612.9
2018-Jul-11 20:00N 35°13' E 139°46'612.6
2018-Jul-11 19:30N 35°19' E 139°43'612.1
2018-Jul-11 19:00N 35°25' E 139°43'2 4.4
2018-Jul-11 18:30N 35°26' E 139°41'0 0.0
2018-Jul-11 18:00N 35°26' E 139°41'0 0.0
2018-Jul-11 17:24N 35°26' E 139°41'0 0.0
2018-Jul-11 17:00N 35°26' E 139°41'0 0.0
2018-Jul-11 16:30N 35°26' E 139°41'0 0.0
2018-Jul-11 16:00N 35°26' E 139°41'2 3.7
2018-Jul-11 15:30N 35°26' E 139°43'2 4.2
2018-Jul-11 15:00N 35°24' E 139°45'0 0.1
2018-Jul-11 14:27N 35°24' E 139°45'0 0.0
2018-Jul-11 13:54N 35°24' E 139°45'0 0.1
2018-Jul-11 13:30N 35°24' E 139°45'0 0.0
2018-Jul-11 13:00N 35°24' E 139°45'0 0.0
2018-Jul-11 12:30N 35°24' E 139°45'0 0.0
2018-Jul-11 12:00N 35°24' E 139°45'0 0.1
2018-Jul-11 11:30N 35°24' E 139°45'  
Track history (hours):
 
Tides and Currents Weather Stations Pressure Air Temp Water Temp Dewpoint Dewpoint Depression Visibility Wind Speed Wind Dir Waves Ship Positions

Hiyodori

Last reported at 2018-Jul-21 11:27 UTC. Time now 2018-Jul-22 02:51 UTC.
Position N 34°55' E 139°21'.

Length 88 m; draft 3.6 m.

Type: Cargo ship. MMSI: 431000132.

Date/timePositionNaut miles runAvg speedWind from/ knotsBaromVisibWave heightAir tempDewpointWater temp
2018-Jul-21 11:27N 34°55' E 139°21'4 9.3
2018-Jul-21 10:59N 34°58' E 139°26'5 9.2
2018-Jul-21 10:29N 35°00' E 139°30'5 9.4
2018-Jul-21 09:59N 35°03' E 139°35'510.0
2018-Jul-21 09:30N 35°06' E 139°40'510.7
2018-Jul-21 09:00N 35°10' E 139°44'510.6
2018-Jul-21 08:30N 35°15' E 139°46'611.7
2018-Jul-21 08:00N 35°20' E 139°42'611.7
2018-Jul-21 07:30N 35°26' E 139°43'4 8.0
2018-Jul-21 07:00N 35°28' E 139°39'0 0.4
2018-Jul-21 06:28N 35°29' E 139°39'0 0.0
2018-Jul-21 05:58N 35°29' E 139°39'0 0.0
2018-Jul-21 05:28N 35°29' E 139°39'0 0.0
2018-Jul-21 04:58N 35°29' E 139°39'0 0.0
2018-Jul-21 04:28N 35°29' E 139°39'0 0.0
2018-Jul-21 03:58N 35°29' E 139°39'0 0.0
2018-Jul-21 03:28N 35°29' E 139°39'0 0.0
2018-Jul-21 02:58N 35°29' E 139°39'0 0.0
2018-Jul-21 02:28N 35°29' E 139°39'0 0.0
2018-Jul-21 01:58N 35°29' E 139°39'0 0.0
2018-Jul-21 01:28N 35°29' E 139°39'0 0.0
2018-Jul-21 00:58N 35°29' E 139°39'0 0.0
2018-Jul-21 00:28N 35°29' E 139°39'0 0.0
2018-Jul-20 23:58N 35°29' E 139°39'0 0.0
2018-Jul-20 23:28N 35°29' E 139°39'0 0.0
2018-Jul-20 22:58N 35°29' E 139°39'0 0.0
2018-Jul-20 22:28N 35°29' E 139°39'0 0.0
2018-Jul-20 21:58N 35°29' E 139°39'0 0.0
2018-Jul-20 21:28N 35°29' E 139°39'0 0.0
2018-Jul-20 20:58N 35°29' E 139°39'0 0.0
2018-Jul-20 20:28N 35°29' E 139°39'0 0.0
2018-Jul-20 19:58N 35°29' E 139°39'0 0.0
2018-Jul-20 19:28N 35°29' E 139°39'0 0.0
2018-Jul-20 18:58N 35°29' E 139°39'0 0.0
2018-Jul-20 18:28N 35°29' E 139°39'0 0.0
2018-Jul-20 17:58N 35°29' E 139°39'0 0.0
2018-Jul-20 17:28N 35°29' E 139°39'0 0.0
2018-Jul-20 16:58N 35°29' E 139°39'0 0.0
2018-Jul-20 16:28N 35°29' E 139°39'0 0.0
2018-Jul-20 15:58N 35°29' E 139°39'0 0.0
2018-Jul-20 15:28N 35°29' E 139°39'0 0.0
2018-Jul-20 14:58N 35°29' E 139°39'0 0.0
2018-Jul-20 14:28N 35°29' E 139°39'0 0.0
2018-Jul-20 13:58N 35°29' E 139°39'0 0.0
2018-Jul-20 13:28N 35°29' E 139°39'0 0.0
2018-Jul-20 12:58N 35°29' E 139°39'0 0.0
2018-Jul-20 12:28N 35°29' E 139°39'0 0.0
2018-Jul-20 11:58N 35°29' E 139°39'0 0.0
2018-Jul-20 11:28N 35°29' E 139°39'0 0.0
2018-Jul-20 10:58N 35°29' E 139°39'0 0.0
2018-Jul-20 10:28N 35°29' E 139°39'0 0.0
2018-Jul-20 09:58N 35°29' E 139°39'0 0.0
2018-Jul-20 09:28N 35°29' E 139°39'0 0.0
2018-Jul-20 08:58N 35°29' E 139°39'0 0.0
2018-Jul-20 08:28N 35°29' E 139°39'0 0.0
2018-Jul-20 07:58N 35°29' E 139°39'0 0.0
2018-Jul-20 07:28N 35°29' E 139°39'2 3.5
2018-Jul-20 07:00N 35°27' E 139°40'3 5.2
2018-Jul-20 06:30N 35°26' E 139°43'2 4.6
2018-Jul-20 06:00N 35°28' E 139°45'2 3.1
2018-Jul-20 05:30N 35°29' E 139°45'1 1.3
2018-Jul-20 05:01N 35°29' E 139°45'5 9.1
2018-Jul-20 04:31N 35°24' E 139°45'0 0.1
2018-Jul-20 01:22N 35°24' E 139°45'0 0.0
2018-Jul-20 00:25N 35°24' E 139°45'1 1.8
2018-Jul-20 00:00N 35°23' E 139°45'611.3
2018-Jul-19 23:30N 35°18' E 139°45'612.0
2018-Jul-19 23:00N 35°12' E 139°47'612.8
2018-Jul-19 22:30N 35°06' E 139°44'612.8
2018-Jul-19 22:00N 35°01' E 139°39'814.1
2018-Jul-19 21:27N 34°56' E 139°31'28 1.0
2018-Jul-18 16:43N 34°41' E 139°02'2411.1
2018-Jul-18 14:34N 34°57' E 139°24'110.1
2018-Jul-18 14:29N 34°57' E 139°25'1210.6
2018-Jul-18 13:21N 35°04' E 139°36'411.8
2018-Jul-18 13:00N 35°07' E 139°41'611.5
2018-Jul-18 12:30N 35°11' E 139°45'510.9
2018-Jul-18 12:00N 35°17' E 139°45'611.7
2018-Jul-18 11:30N 35°22' E 139°42'4 4.3
2018-Jul-18 10:29N 35°26' E 139°41'0 0.0
2018-Jul-18 09:59N 35°26' E 139°41'0 0.0
2018-Jul-18 09:29N 35°26' E 139°41'0 0.0
2018-Jul-18 08:59N 35°26' E 139°41'0 0.0
2018-Jul-18 08:29N 35°26' E 139°41'0 0.0
2018-Jul-18 08:00N 35°26' E 139°41'1 2.8
2018-Jul-18 07:30N 35°26' E 139°43'4 7.3
2018-Jul-18 07:01N 35°29' E 139°45'0 0.1
2018-Jul-18 06:30N 35°29' E 139°45'0 0.0
2018-Jul-18 06:00N 35°29' E 139°45'0 0.0
2018-Jul-18 05:30N 35°29' E 139°45'0 1.0
2018-Jul-18 05:00N 35°29' E 139°45'3 5.8
2018-Jul-18 04:28N 35°28' E 139°42'0 0.0
2018-Jul-18 03:58N 35°28' E 139°42'0 0.0
2018-Jul-18 03:28N 35°28' E 139°42'0 0.0
2018-Jul-18 02:58N 35°28' E 139°42'1 1.1
2018-Jul-18 02:31N 35°28' E 139°42'4 8.5
2018-Jul-18 02:01N 35°24' E 139°40'1 1.3
2018-Jul-18 01:31N 35°24' E 139°41'0 0.0
2018-Jul-18 01:00N 35°24' E 139°41'3 6.0
2018-Jul-18 00:30N 35°21' E 139°42'611.6
2018-Jul-18 00:00N 35°16' E 139°46'611.1
2018-Jul-17 23:30N 35°11' E 139°47'612.0
2018-Jul-17 23:00N 35°05' E 139°46'612.3
2018-Jul-17 22:30N 35°02' E 139°39'713.4
2018-Jul-17 22:00N 34°57' E 139°33'234 6.0
2018-Jul-16 06:56N 33°52' E 135°01'512.5
2018-Jul-16 06:30N 33°58' E 135°01'612.6
2018-Jul-16 06:00N 34°04' E 135°00'612.1
2018-Jul-16 05:30N 34°10' E 134°60'713.6
2018-Jul-16 05:01N 34°17' E 134°59'612.6
2018-Jul-16 04:30N 34°23' E 135°02'613.0
2018-Jul-16 04:00N 34°27' E 135°07'612.5
2018-Jul-16 03:30N 34°31' E 135°13'612.3
2018-Jul-16 03:00N 34°37' E 135°16'3 6.2
2018-Jul-16 02:30N 34°40' E 135°14'0 0.1
2018-Jul-16 01:58N 34°40' E 135°14'0 0.0
2018-Jul-16 01:28N 34°40' E 135°14'0 0.0
2018-Jul-16 00:55N 34°40' E 135°14'0 0.1
2018-Jul-16 00:28N 34°40' E 135°14'0 0.1
2018-Jul-15 23:55N 34°40' E 135°14'0 0.0
2018-Jul-15 23:30N 34°40' E 135°14'3 5.4
2018-Jul-15 23:00N 34°38' E 135°16'4 7.7
2018-Jul-15 22:30N 34°35' E 135°15'4 7.4
2018-Jul-15 22:00N 34°31' E 135°13'3 7.0
2018-Jul-15 21:30N 34°29' E 135°10'4 7.3
2018-Jul-15 21:00N 34°26' E 135°07'3 6.9
2018-Jul-15 20:31N 34°23' E 135°04'4 7.9
2018-Jul-15 20:01N 34°20' E 135°02'5 9.7
2018-Jul-15 19:30N 34°16' E 134°59'5 9.6
2018-Jul-15 19:00N 34°11' E 134°59'611.0
2018-Jul-15 18:30N 34°05' E 134°59'611.1
2018-Jul-15 18:00N 33°60' E 134°59'611.3
2018-Jul-15 17:27N 33°53' E 134°59'511.3
2018-Jul-15 17:00N 33°49' E 135°01'1012.1
2018-Jul-15 16:12N 33°41' E 135°08'312.0
2018-Jul-15 15:59N 33°39' E 135°11'22111.1
2018-Jul-14 19:59N 34°56' E 139°22'510.6
2018-Jul-14 19:30N 34°59' E 139°27'911.7
2018-Jul-14 18:44N 35°04' E 139°36'313.5
2018-Jul-14 18:30N 35°06' E 139°39'612.7
2018-Jul-14 18:00N 35°10' E 139°45'611.8
2018-Jul-14 17:30N 35°16' E 139°46'612.1
2018-Jul-14 17:00N 35°21' E 139°42'510.8
2018-Jul-14 16:30N 35°27' E 139°41'1 1.2
2018-Jul-14 15:59N 35°26' E 139°41'0 0.0
2018-Jul-14 15:26N 35°26' E 139°41'0 0.0
2018-Jul-14 14:59N 35°26' E 139°41'0 0.0
2018-Jul-14 14:29N 35°26' E 139°41'0 0.0
2018-Jul-14 13:26N 35°26' E 139°41'0 0.0
2018-Jul-14 12:59N 35°26' E 139°41'0 0.1
2018-Jul-14 12:31N 35°26' E 139°41'4 7.4
2018-Jul-14 12:00N 35°24' E 139°45'0 0.1
2018-Jul-14 11:17N 35°24' E 139°45'0 0.0
2018-Jul-14 10:59N 35°24' E 139°45'0 0.0
2018-Jul-14 10:26N 35°24' E 139°45'0 0.1
2018-Jul-14 09:59N 35°24' E 139°45'0 0.2
2018-Jul-14 09:29N 35°24' E 139°45'0 0.0
2018-Jul-14 08:59N 35°24' E 139°45'0 0.0
2018-Jul-14 08:26N 35°24' E 139°45'0 0.0
2018-Jul-14 07:58N 35°24' E 139°45'4 7.9
2018-Jul-14 07:30N 35°24' E 139°40'0 0.7
2018-Jul-14 06:59N 35°24' E 139°41'0 0.0
2018-Jul-14 06:29N 35°24' E 139°41'0 0.2
2018-Jul-14 06:00N 35°24' E 139°41'1 2.1
2018-Jul-14 05:30N 35°23' E 139°41'2 4.0
2018-Jul-14 04:58N 35°23' E 139°44'0 0.0
2018-Jul-14 04:28N 35°23' E 139°44'0 0.0
2018-Jul-14 03:58N 35°23' E 139°44'0 0.0
2018-Jul-14 03:28N 35°23' E 139°44'0 0.1
2018-Jul-14 02:58N 35°23' E 139°44'0 0.0
2018-Jul-14 02:28N 35°23' E 139°44'3 6.5
2018-Jul-14 02:00N 35°20' E 139°43'611.2
2018-Jul-14 01:30N 35°15' E 139°47'510.8
2018-Jul-14 01:00N 35°10' E 139°46'611.8
2018-Jul-14 00:29N 35°04' E 139°44'613.0
2018-Jul-14 00:00N 35°00' E 139°38'714.2
2018-Jul-13 23:31N 34°56' E 139°31'8 0.2
2018-Jul-11 22:35N 34°53' E 139°22'2 9.3
2018-Jul-11 22:25N 34°54' E 139°23'610.2
2018-Jul-11 21:52N 34°58' E 139°28'411.0
2018-Jul-11 21:31N 35°00' E 139°32'611.3
2018-Jul-11 20:58N 35°04' E 139°38'511.7
2018-Jul-11 20:30N 35°08' E 139°43'612.9
2018-Jul-11 20:00N 35°13' E 139°46'612.6
2018-Jul-11 19:30N 35°19' E 139°43'612.1
2018-Jul-11 19:00N 35°25' E 139°43'2 4.4
2018-Jul-11 18:30N 35°26' E 139°41'0 0.0
2018-Jul-11 18:00N 35°26' E 139°41'0 0.0
2018-Jul-11 17:24N 35°26' E 139°41'0 0.0
2018-Jul-11 17:00N 35°26' E 139°41'0 0.0
2018-Jul-11 16:30N 35°26' E 139°41'0 0.0
2018-Jul-11 16:00N 35°26' E 139°41'2 3.7
2018-Jul-11 15:30N 35°26' E 139°43'2 4.2
2018-Jul-11 15:00N 35°24' E 139°45'0 0.1
2018-Jul-11 14:27N 35°24' E 139°45'0 0.0
2018-Jul-11 13:54N 35°24' E 139°45'0 0.1
2018-Jul-11 13:30N 35°24' E 139°45'0 0.0
2018-Jul-11 13:00N 35°24' E 139°45'0 0.0
2018-Jul-11 12:30N 35°24' E 139°45'0 0.0
2018-Jul-11 12:00N 35°24' E 139°45'0 0.1
2018-Jul-11 11:30N 35°24' E 139°45'  

Dump ship's entire track history